createdAt,value
2022-11-16T00:00:52.692Z,43.20
2022-11-16T00:05:53.439Z,43.10
2022-11-16T00:10:54.134Z,43.50
2022-11-16T00:15:54.852Z,42.40
2022-11-16T00:20:55.597Z,39.60
2022-11-16T00:25:56.287Z,39.30
2022-11-16T00:30:57.020Z,40.00
2022-11-16T00:35:57.778Z,40.00
2022-11-16T00:40:58.495Z,38.70
2022-11-16T00:45:59.254Z,38.90
2022-11-16T00:50:59.936Z,39.50
2022-11-16T00:56:00.685Z,38.00
2022-11-16T01:01:01.484Z,38.30
2022-11-16T01:06:02.215Z,37.50
2022-11-16T01:11:02.979Z,39.40
2022-11-16T01:16:03.661Z,36.90
2022-11-16T01:21:04.386Z,38.20
2022-11-16T01:26:05.115Z,37.70
2022-11-16T01:31:05.850Z,36.70
2022-11-16T01:36:06.553Z,37.70
2022-11-16T01:41:07.273Z,37.10
2022-11-16T01:46:07.997Z,38.20
2022-11-16T01:51:08.739Z,37.90
2022-11-16T01:56:09.528Z,38.30
2022-11-16T02:01:10.287Z,37.70
2022-11-16T02:06:11.037Z,38.20
2022-11-16T02:11:11.737Z,40.20
2022-11-16T02:16:12.470Z,37.40
2022-11-16T02:21:13.211Z,37.80
2022-11-16T02:26:13.916Z,36.50
2022-11-16T02:31:14.647Z,39.00
2022-11-16T02:36:15.369Z,38.10
2022-11-16T02:41:16.128Z,40.30
2022-11-16T02:46:16.832Z,41.20
2022-11-16T02:51:17.548Z,43.20
2022-11-16T02:56:18.289Z,44.10
2022-11-16T03:01:19.131Z,44.30
2022-11-16T03:06:19.831Z,44.30
2022-11-16T03:11:20.561Z,44.40
2022-11-16T03:16:21.585Z,46.50
2022-11-16T03:21:22.331Z,44.90
2022-11-16T03:26:23.077Z,43.20
2022-11-16T03:31:23.823Z,42.40
2022-11-16T03:36:24.609Z,45.30
2022-11-16T03:41:25.374Z,44.20
2022-11-16T03:46:26.098Z,43.80
2022-11-16T03:51:26.841Z,46.50
2022-11-16T03:56:27.548Z,47.50
2022-11-16T04:01:28.290Z,48.20
2022-11-16T04:06:28.998Z,50.30
2022-11-16T04:11:29.739Z,51.90
2022-11-16T04:16:30.439Z,50.90
2022-11-16T04:21:31.168Z,51.00
2022-11-16T04:26:31.896Z,49.80
2022-11-16T04:31:32.631Z,50.60
2022-11-16T04:36:40.350Z,53.00
2022-11-16T04:41:34.067Z,51.20
2022-11-16T04:46:34.797Z,52.70
2022-11-16T04:51:35.591Z,53.40
2022-11-16T04:56:36.307Z,52.00
2022-11-16T05:01:37.086Z,53.80
2022-11-16T05:06:37.743Z,54.20
2022-11-16T05:11:38.460Z,53.90
2022-11-16T05:16:39.248Z,54.30
2022-11-16T05:21:39.978Z,54.40
2022-11-16T05:32:29.371Z,53.90
2022-11-16T05:37:30.101Z,52.80
2022-11-16T05:42:30.836Z,53.70
2022-11-16T05:47:31.579Z,52.60
2022-11-16T05:52:32.290Z,51.70
2022-11-16T05:57:32.977Z,51.60
2022-11-16T06:02:33.775Z,52.50
2022-11-16T06:07:34.521Z,51.70
2022-11-16T06:12:35.163Z,52.40
2022-11-16T06:17:36.094Z,53.20
2022-11-16T06:22:36.671Z,51.30
2022-11-16T06:27:37.341Z,52.20
2022-11-16T06:32:37.998Z,53.00
2022-11-16T06:37:39.002Z,55.10
2022-11-16T06:42:39.609Z,52.60
2022-11-16T06:47:40.263Z,52.60
2022-11-16T06:52:40.915Z,52.70
2022-11-16T06:57:41.594Z,52.80
2022-11-16T07:02:42.232Z,52.70
2022-11-16T07:07:42.889Z,54.30
2022-11-16T07:12:43.537Z,53.20
2022-11-16T07:17:44.207Z,53.80
2022-11-16T07:22:44.848Z,53.10
2022-11-16T07:27:45.529Z,53.20
2022-11-16T07:32:46.195Z,52.40
2022-11-16T07:37:46.869Z,55.90
2022-11-16T07:42:47.506Z,51.30
2022-11-16T07:47:48.154Z,53.30
2022-11-16T07:52:48.829Z,51.70
2022-11-16T07:57:53.247Z,53.30
2022-11-16T08:02:50.305Z,53.20
2022-11-16T08:07:50.982Z,50.90
2022-11-16T08:12:51.641Z,49.50
2022-11-16T08:17:52.307Z,46.90
2022-11-16T08:22:52.959Z,46.70
2022-11-16T08:27:53.678Z,46.30
2022-11-16T08:32:54.318Z,46.20
2022-11-16T08:37:55.087Z,44.30
2022-11-16T08:42:55.673Z,43.90
2022-11-16T08:48:03.515Z,41.80
2022-11-16T08:52:57.984Z,40.90
2022-11-16T08:57:57.586Z,41.20
2022-11-16T09:02:58.246Z,38.80
2022-11-16T09:07:58.904Z,39.50
2022-11-16T09:12:59.674Z,38.90
2022-11-16T09:18:00.283Z,33.90
2022-11-16T09:23:02.200Z,31.80
2022-11-16T09:28:01.826Z,28.20
2022-11-16T09:33:03.508Z,26.20
2022-11-16T09:38:03.154Z,25.50
2022-11-16T09:43:04.038Z,25.60
2022-11-16T09:48:04.698Z,26.50
2022-11-16T09:53:05.609Z,27.20
2022-11-16T09:58:06.198Z,28.60
2022-11-16T10:03:06.904Z,29.60
2022-11-16T10:08:07.560Z,30.30
2022-11-16T10:13:08.283Z,30.30
2022-11-16T10:18:08.932Z,30.80
2022-11-16T10:23:09.620Z,30.50
2022-11-16T10:28:10.267Z,29.50
2022-11-16T10:33:11.533Z,31.10
2022-11-16T10:38:18.740Z,31.60
2022-11-16T10:43:12.380Z,32.70
2022-11-16T10:48:13.128Z,34.50
2022-11-16T10:53:13.769Z,33.50
2022-11-16T10:58:14.588Z,33.80
2022-11-16T11:03:15.208Z,33.40
2022-11-16T11:08:16.070Z,33.80
2022-11-16T11:13:18.730Z,34.40
2022-11-16T11:18:17.413Z,33.70
2022-11-16T11:23:18.084Z,36.60
2022-11-16T11:28:18.771Z,35.10
2022-11-16T11:33:19.470Z,35.80
2022-11-16T11:38:20.168Z,34.60
2022-11-16T11:43:21.822Z,33.60
2022-11-16T11:48:21.578Z,34.40
2022-11-16T11:53:22.163Z,34.20
2022-11-16T11:58:22.897Z,34.60
2022-11-16T12:03:23.625Z,33.80
2022-11-16T12:08:24.391Z,34.30
2022-11-16T12:13:25.051Z,34.70
2022-11-16T12:18:25.685Z,33.90
2022-11-16T12:23:26.402Z,32.70
2022-11-16T12:28:27.095Z,31.70
2022-11-16T12:33:28.553Z,31.20
2022-11-16T12:38:28.324Z,30.90
2022-11-16T12:43:29.442Z,31.70
2022-11-16T12:48:29.816Z,32.20
2022-11-16T12:53:30.440Z,29.60
2022-11-16T12:58:31.115Z,28.70
2022-11-16T13:03:32.293Z,29.20
2022-11-16T13:08:32.652Z,27.70
2022-11-16T13:13:49.628Z,28.40
2022-11-16T13:18:34.983Z,26.60
2022-11-16T13:23:35.001Z,25.60
2022-11-16T13:28:35.774Z,26.50
2022-11-16T13:33:36.478Z,24.70
2022-11-16T13:38:37.222Z,25.80
2022-11-16T13:43:37.815Z,24.10
2022-11-16T13:48:39.505Z,23.60
2022-11-16T13:58:40.795Z,23.30
2022-11-16T14:03:40.430Z,23.10
2022-11-16T14:08:41.075Z,22.50
2022-11-16T14:13:41.742Z,21.50
2022-11-16T14:18:42.523Z,21.60
2022-11-16T14:23:43.460Z,22.80
2022-11-16T14:28:43.752Z,21.90
2022-11-16T14:33:44.532Z,22.50
2022-11-16T14:38:45.155Z,21.60
2022-11-16T14:43:45.813Z,21.50
2022-11-16T14:48:46.503Z,20.50
2022-11-16T14:53:47.140Z,20.50
2022-11-16T14:58:47.790Z,19.80
2022-11-16T15:03:48.680Z,19.20
2022-11-16T15:08:49.340Z,20.10
2022-11-16T15:13:49.990Z,19.40
2022-11-16T15:18:50.774Z,17.20
2022-11-16T15:24:15.451Z,17.00
2022-11-16T15:28:52.998Z,15.80
2022-11-16T15:33:52.822Z,15.70
2022-11-16T15:38:54.486Z,14.40
2022-11-16T15:44:14.431Z,15.20
2022-11-16T15:48:55.924Z,14.20
2022-11-16T15:53:55.566Z,13.80
2022-11-16T15:58:56.210Z,13.30
2022-11-16T16:03:56.930Z,13.20
2022-11-16T16:08:57.767Z,12.90
2022-11-16T16:13:58.461Z,14.10
2022-11-16T16:18:59.175Z,17.50
2022-11-16T16:24:00.172Z,16.60
2022-11-16T16:29:00.872Z,15.60
2022-11-16T16:34:01.664Z,15.70
2022-11-16T16:39:02.390Z,15.40
2022-11-16T16:44:03.146Z,14.60
2022-11-16T16:49:03.886Z,14.50
2022-11-16T16:54:04.758Z,14.80
2022-11-16T16:59:05.414Z,16.40
2022-11-16T17:04:06.272Z,16.20
2022-11-16T17:09:07.025Z,16.10
2022-11-16T17:14:07.879Z,15.50
2022-11-16T17:19:08.513Z,15.00
2022-11-16T17:24:09.297Z,14.40
2022-11-16T17:29:10.100Z,14.00
2022-11-16T17:34:13.774Z,12.70
2022-11-16T17:39:11.709Z,11.80
2022-11-16T17:44:14.955Z,11.90
2022-11-16T17:49:14.221Z,11.50
2022-11-16T17:54:13.895Z,10.70
2022-11-16T17:59:14.603Z,11.30
2022-11-16T18:04:15.322Z,10.60
2022-11-16T18:09:16.067Z,10.10
2022-11-16T18:14:16.818Z,10.30
2022-11-16T18:19:17.554Z,10.10
2022-11-16T18:24:18.266Z,10.10
2022-11-16T18:29:19.085Z,9.50
2022-11-16T18:34:19.887Z,9.30
2022-11-16T18:39:20.617Z,9.00
2022-11-16T18:44:21.452Z,8.50
2022-11-16T18:49:22.187Z,8.30
2022-11-16T18:54:23.441Z,7.80
2022-11-16T18:59:23.790Z,7.60
2022-11-16T19:04:24.633Z,7.50
2022-11-16T19:09:25.332Z,7.20
2022-11-16T19:14:26.241Z,7.40
2022-11-16T19:19:26.908Z,7.80
2022-11-16T19:24:27.668Z,7.50
2022-11-16T19:29:28.397Z,7.50
2022-11-16T19:34:33.337Z,7.80
2022-11-16T19:39:31.899Z,7.10
2022-11-16T19:44:30.929Z,7.60
2022-11-16T19:49:31.132Z,7.60
2022-11-16T19:54:31.957Z,8.00
2022-11-16T19:59:32.696Z,7.70
2022-11-16T20:04:33.551Z,7.40
2022-11-16T20:09:34.203Z,7.30
2022-11-16T20:14:34.971Z,7.40
2022-11-16T20:19:35.703Z,7.80
2022-11-16T20:24:36.623Z,7.90
2022-11-16T20:29:37.319Z,8.30
2022-11-16T20:34:38.055Z,8.80
2022-11-16T20:39:39.582Z,9.00
2022-11-16T20:44:39.237Z,9.50
2022-11-16T20:49:40.103Z,9.20
2022-11-16T20:54:40.815Z,9.90
2022-11-16T20:59:41.685Z,9.90
2022-11-16T21:04:42.339Z,9.60
2022-11-16T21:09:43.095Z,9.70
2022-11-16T21:14:43.811Z,9.20
2022-11-16T21:20:05.509Z,9.30
2022-11-16T21:24:46.145Z,9.30
2022-11-16T21:29:45.890Z,9.50
2022-11-16T21:34:46.653Z,9.20
2022-11-16T21:39:47.531Z,10.00
2022-11-16T21:44:48.308Z,8.90
2022-11-16T21:50:16.930Z,9.50
2022-11-16T21:54:50.773Z,8.90
2022-11-16T21:59:50.544Z,9.50
2022-11-16T22:04:51.258Z,9.00
2022-11-16T22:09:52.004Z,9.10
2022-11-16T22:14:52.762Z,8.90
2022-11-16T22:19:53.551Z,9.20
2022-11-16T22:24:54.288Z,8.90
2022-11-16T22:29:55.188Z,8.60
2022-11-16T22:34:55.982Z,9.30
2022-11-16T22:39:56.707Z,9.10
2022-11-16T22:44:58.147Z,9.60
2022-11-16T22:49:58.315Z,9.60
2022-11-16T22:55:06.359Z,9.80
2022-11-16T22:59:59.622Z,10.10
2022-11-16T23:05:00.286Z,10.00
2022-11-16T23:10:00.992Z,10.00
2022-11-16T23:15:01.867Z,10.20
2022-11-16T23:20:02.635Z,10.20
2022-11-16T23:25:03.335Z,10.40
2022-11-16T23:30:07.931Z,10.00
2022-11-16T23:35:05.863Z,9.90
2022-11-16T23:40:05.503Z,10.70
2022-11-16T23:45:06.227Z,10.10
2022-11-16T23:50:06.978Z,10.10
2022-11-16T23:55:07.818Z,10.40
